Venus Seven — H9RN — position and weather

sailwx.info

Track history (hours):
 
Tides and Currents Weather Stations Pressure Air Temp Water Temp Dewpoint Dewpoint Depression Visibility Wind Speed Wind Dir Waves Ship Positions

Venus Seven

Last reported at 2014-Dec-17 15:15 UTC. Time now 2014-Dec-22 17:46 UTC.
Position N 22°45' E 120°07'.

Length 93 m; draft 4.7 m.

Type: Cargo ship. MMSI: 353405000.

Date/timePositionNaut miles runAvg speedWind from/ knotsBaromVisibWave heightAir tempDewpointWater temp
2014-Dec-17 15:15N 22°45' E 120°07'912.9
2014-Dec-17 14:33N 22°37' E 120°11'10 1.7
2014-Dec-17 09:04N 22°33' E 120°20'4 7.6
2014-Dec-17 08:33N 22°35' E 120°18'2 1.3
2014-Dec-17 07:24N 22°37' E 120°17'0 0.0
2014-Dec-17 06:30N 22°37' E 120°17'0 0.0
2014-Dec-17 05:30N 22°37' E 120°17'0 0.0
2014-Dec-17 04:30N 22°37' E 120°17'0 0.0
2014-Dec-17 03:24N 22°37' E 120°17'0 0.0
2014-Dec-17 02:30N 22°37' E 120°17'0 0.0
2014-Dec-17 01:30N 22°37' E 120°17'0 0.0
2014-Dec-17 00:30N 22°37' E 120°17'0 0.4
2014-Dec-16 23:33N 22°37' E 120°17'6 6.4
2014-Dec-16 22:33N 22°39' E 120°10'6 6.3
2014-Dec-16 21:33N 22°44' E 120°06'  
2014-Dec-11 09:19N 34°37' E 134°54'7 9.5
2014-Dec-11 08:33N 34°36' E 135°03'1111.1
2014-Dec-11 07:33N 34°36' E 135°17'7 6.6
2014-Dec-11 06:30N 34°38' E 135°25'0 0.0
2014-Dec-11 05:30N 34°38' E 135°25'0 0.0
2014-Dec-11 04:30N 34°38' E 135°25'0 0.0
2014-Dec-11 03:18N 34°38' E 135°25'0 0.0
2014-Dec-11 02:30N 34°38' E 135°25'0 0.0
2014-Dec-11 01:30N 34°38' E 135°25'0 0.0
2014-Dec-11 00:30N 34°38' E 135°25'0 0.0
2014-Dec-10 23:30N 34°38' E 135°25'0 0.0
2014-Dec-10 22:24N 34°38' E 135°25'0 0.0
2014-Dec-10 21:30N 34°38' E 135°25'0 0.0
2014-Dec-10 20:30N 34°38' E 135°25'0 0.0
2014-Dec-10 19:24N 34°38' E 135°25'0 0.0
2014-Dec-10 18:24N 34°38' E 135°25'0 0.0
2014-Dec-10 17:30N 34°38' E 135°25'0 0.0
2014-Dec-10 16:23N 34°38' E 135°25'0 0.0
2014-Dec-10 15:29N 34°38' E 135°25'0 0.0
2014-Dec-10 14:17N 34°38' E 135°25'0 0.0
2014-Dec-10 13:29N 34°38' E 135°25'0 0.0
2014-Dec-10 12:29N 34°38' E 135°25'0 0.0
2014-Dec-10 11:29N 34°38' E 135°25'0 0.0
2014-Dec-10 10:29N 34°38' E 135°25'0 0.0
2014-Dec-10 09:23N 34°38' E 135°25'0 0.0
2014-Dec-10 08:23N 34°38' E 135°25'0 0.0
2014-Dec-10 07:05N 34°38' E 135°25'0 0.0
2014-Dec-10 06:29N 34°38' E 135°25'0 0.0
2014-Dec-10 05:23N 34°38' E 135°25'0 0.0
2014-Dec-10 04:29N 34°38' E 135°25'0 0.0
2014-Dec-10 03:29N 34°38' E 135°25'0 0.0
2014-Dec-10 02:23N 34°38' E 135°25'0 0.0
2014-Dec-10 01:29N 34°38' E 135°25'0 0.0
2014-Dec-10 00:29N 34°38' E 135°25'0 0.0
2014-Dec-09 23:29N 34°38' E 135°25'0 0.0
2014-Dec-09 22:29N 34°38' E 135°25'3 2.8
2014-Dec-09 21:33N 34°37' E 135°22'8 8.4
2014-Dec-09 20:33N 34°35' E 135°12'1313.1
2014-Dec-09 19:32N 34°36' E 134°56'7 3.1
2014-Dec-09 17:10N 34°33' E 134°47'1 1.8
2014-Dec-09 16:33N 34°33' E 134°49'  
Track history (hours):
 
Tides and Currents Weather Stations Pressure Air Temp Water Temp Dewpoint Dewpoint Depression Visibility Wind Speed Wind Dir Waves Ship Positions

Venus Seven

Last reported at 2014-Dec-17 15:15 UTC. Time now 2014-Dec-22 17:46 UTC.
Position N 22°45' E 120°07'.

Length 93 m; draft 4.7 m.

Type: Cargo ship. MMSI: 353405000.

Date/timePositionNaut miles runAvg speedWind from/ knotsBaromVisibWave heightAir tempDewpointWater temp
2014-Dec-17 15:15N 22°45' E 120°07'912.9
2014-Dec-17 14:33N 22°37' E 120°11'10 1.7
2014-Dec-17 09:04N 22°33' E 120°20'4 7.6
2014-Dec-17 08:33N 22°35' E 120°18'2 1.3
2014-Dec-17 07:24N 22°37' E 120°17'0 0.0
2014-Dec-17 06:30N 22°37' E 120°17'0 0.0
2014-Dec-17 05:30N 22°37' E 120°17'0 0.0
2014-Dec-17 04:30N 22°37' E 120°17'0 0.0
2014-Dec-17 03:24N 22°37' E 120°17'0 0.0
2014-Dec-17 02:30N 22°37' E 120°17'0 0.0
2014-Dec-17 01:30N 22°37' E 120°17'0 0.0
2014-Dec-17 00:30N 22°37' E 120°17'0 0.4
2014-Dec-16 23:33N 22°37' E 120°17'6 6.4
2014-Dec-16 22:33N 22°39' E 120°10'6 6.3
2014-Dec-16 21:33N 22°44' E 120°06'  
2014-Dec-11 09:19N 34°37' E 134°54'7 9.5
2014-Dec-11 08:33N 34°36' E 135°03'1111.1
2014-Dec-11 07:33N 34°36' E 135°17'7 6.6
2014-Dec-11 06:30N 34°38' E 135°25'0 0.0
2014-Dec-11 05:30N 34°38' E 135°25'0 0.0
2014-Dec-11 04:30N 34°38' E 135°25'0 0.0
2014-Dec-11 03:18N 34°38' E 135°25'0 0.0
2014-Dec-11 02:30N 34°38' E 135°25'0 0.0
2014-Dec-11 01:30N 34°38' E 135°25'0 0.0
2014-Dec-11 00:30N 34°38' E 135°25'0 0.0
2014-Dec-10 23:30N 34°38' E 135°25'0 0.0
2014-Dec-10 22:24N 34°38' E 135°25'0 0.0
2014-Dec-10 21:30N 34°38' E 135°25'0 0.0
2014-Dec-10 20:30N 34°38' E 135°25'0 0.0
2014-Dec-10 19:24N 34°38' E 135°25'0 0.0
2014-Dec-10 18:24N 34°38' E 135°25'0 0.0
2014-Dec-10 17:30N 34°38' E 135°25'0 0.0
2014-Dec-10 16:23N 34°38' E 135°25'0 0.0
2014-Dec-10 15:29N 34°38' E 135°25'0 0.0
2014-Dec-10 14:17N 34°38' E 135°25'0 0.0
2014-Dec-10 13:29N 34°38' E 135°25'0 0.0
2014-Dec-10 12:29N 34°38' E 135°25'0 0.0
2014-Dec-10 11:29N 34°38' E 135°25'0 0.0
2014-Dec-10 10:29N 34°38' E 135°25'0 0.0
2014-Dec-10 09:23N 34°38' E 135°25'0 0.0
2014-Dec-10 08:23N 34°38' E 135°25'0 0.0
2014-Dec-10 07:05N 34°38' E 135°25'0 0.0
2014-Dec-10 06:29N 34°38' E 135°25'0 0.0
2014-Dec-10 05:23N 34°38' E 135°25'0 0.0
2014-Dec-10 04:29N 34°38' E 135°25'0 0.0
2014-Dec-10 03:29N 34°38' E 135°25'0 0.0
2014-Dec-10 02:23N 34°38' E 135°25'0 0.0
2014-Dec-10 01:29N 34°38' E 135°25'0 0.0
2014-Dec-10 00:29N 34°38' E 135°25'0 0.0
2014-Dec-09 23:29N 34°38' E 135°25'0 0.0
2014-Dec-09 22:29N 34°38' E 135°25'3 2.8
2014-Dec-09 21:33N 34°37' E 135°22'8 8.4
2014-Dec-09 20:33N 34°35' E 135°12'1313.1
2014-Dec-09 19:32N 34°36' E 134°56'7 3.1
2014-Dec-09 17:10N 34°33' E 134°47'1 1.8
2014-Dec-09 16:33N 34°33' E 134°49'  

Dump ship's entire track history